KPSP/PSP METAR and TAF weather

Enter ICAO airport designator
Station Type Date Time Source
KPSP METAR 2022/06/30 00:53 UTC NOAA

KPSP 300053Z 32017G22KT 10SM CLR 43/05 A2977 RMK AO2 PK WND 34029/0016 SLP075 T04280050


Station Type Date Time Source
KPSP Decoded METAR 2022/06/30 00:53 UTC NOAA

PALM SPRINGS REGIONAL AIRPORT , CA, United States (KPSP) 33-50N 116-30W 135M
Jun 29, 2022 - 08:53 PM EDT / 2022.06.30 0053 UTC
Wind: from the NW (320 degrees) at 20 MPH (17 KT) gusting to 25 MPH (22 KT):0
Visibility: 10 mile(s):0
Sky conditions: clear
Temperature: 109.0 F (42.8 C)
Dew Point: 41.0 F (5.0 C)
Relative Humidity: 10%
Pressure (altimeter): 29.77 in. Hg (1008 hPa)
ob: KPSP 300053Z 32017G22KT 10SM CLR 43/05 A2977 RMK AO2 PK WND 34029/0016 SLP075 T04280050
cycle: 1

Station Type Date Time Source
KPSP TAF 2022/06/29 18:24 UTC NOAA

TAF KPSP 291721Z 2918/3018 25003KT P6SM SKC
FM292000 35011G18KT P6SM SKC
FM292300 31015G25KT P6SM SKC
FM300600 33011KT P6SM SKC
FM300900 VRB05KT P6SM SKC

Example: see airport list